Time;durP1;ratioP1;P1;durP2;ratioP2;P2;SDS_P1;SDS_P2;PMS_P1;PMS_P2;Temp;Humidity;BMP_temperature;BMP_pressure;BME280_temperature;BME280_humidity;BME280_pressure;Samples;Min_cycle;Max_cycle;Signal;HPM_P1;HPM_P2
2023/04/10 00:01:02;;;;;;;28.38;19.80;;;5.40;99.90;;;;;;5031958;28;20407;-58
2023/04/10 00:03:28;;;;;;;30.42;19.23;;;5.40;99.90;;;;;;5037135;28;20088;-58
2023/04/10 00:05:55;;;;;;;29.73;19.20;;;5.40;99.90;;;;;;5033513;28;20475;-58
2023/04/10 00:08:24;;;;;;;30.88;19.55;;;5.40;99.90;;;;;;5046057;28;20104;-58
2023/04/10 00:10:49;;;;;;;26.75;20.17;;;5.40;99.90;;;;;;5028721;28;20176;-59
2023/04/10 00:13:16;;;;;;;30.58;20.73;;;5.40;99.90;;;;;;5039380;28;20108;-58
2023/04/10 00:15:42;;;;;;;25.52;18.60;;;5.40;99.90;;;;;;5032900;28;20107;-56
2023/04/10 00:18:07;;;;;;;33.13;19.67;;;5.50;99.90;;;;;;5039655;28;20025;-58
2023/04/10 00:20:33;;;;;;;26.13;19.23;;;5.50;99.90;;;;;;5033835;28;20026;-58
2023/04/10 00:22:59;;;;;;;29.60;20.75;;;5.50;99.90;;;;;;5032283;28;20033;-58
2023/04/10 00:25:25;;;;;;;28.05;20.23;;;5.50;99.90;;;;;;5032361;28;20044;-58
2023/04/10 00:27:52;;;;;;;29.67;20.80;;;5.40;99.90;;;;;;5031993;28;20087;-55
2023/04/10 00:30:18;;;;;;;27.00;19.25;;;5.50;99.90;;;;;;5037935;28;20020;-58
2023/04/10 00:32:43;;;;;;;32.55;20.40;;;5.50;99.90;;;;;;5027770;28;20415;-55
2023/04/10 00:35:09;;;;;;;31.70;20.05;;;5.40;99.90;;;;;;5036554;28;20052;-57
2023/04/10 00:37:35;;;;;;;31.88;20.10;;;5.40;99.90;;;;;;5041676;28;20025;-56
2023/04/10 00:40:01;;;;;;;33.15;20.17;;;5.40;99.90;;;;;;5033617;28;20108;-57
2023/04/10 00:42:26;;;;;;;27.38;19.70;;;5.40;99.90;;;;;;5031247;28;20109;-58
2023/04/10 00:44:52;;;;;;;31.50;19.90;;;5.40;99.90;;;;;;5039482;28;20029;-59
2023/04/10 00:47:19;;;;;;;32.25;21.40;;;5.40;99.90;;;;;;5034759;28;20105;-58
2023/04/10 00:49:44;;;;;;;25.70;19.92;;;5.40;99.90;;;;;;5031494;28;20024;-56
2023/04/10 00:52:11;;;;;;;33.50;19.08;;;5.40;99.90;;;;;;5042620;28;20479;-56
2023/04/10 00:54:37;;;;;;;27.85;19.83;;;5.40;99.90;;;;;;5042068;28;20100;-55
2023/04/10 00:57:03;;;;;;;25.55;18.02;;;5.30;99.90;;;;;;5034520;28;20033;-57
2023/04/10 00:59:30;;;;;;;29.98;19.75;;;5.30;99.90;;;;;;5036425;28;20025;-55
2023/04/10 01:01:56;;;;;;;25.88;19.23;;;5.30;99.90;;;;;;5034200;28;20034;-55
2023/04/10 01:04:22;;;;;;;27.33;19.15;;;5.40;99.90;;;;;;5032489;28;20032;-55
2023/04/10 01:06:53;;;;;;;30.67;19.40;;;5.30;99.90;;;;;;5038669;28;20025;-57
2023/04/10 01:09:30;;;;;;;30.35;20.27;;;5.40;99.90;;;;;;5037836;28;20025;-56
2023/04/10 01:12:03;;;;;;;28.35;20.15;;;5.30;99.90;;;;;;5037339;28;20033;-58
2023/04/10 01:14:53;;;;;;;28.80;19.60;;;5.30;99.90;;;;;;5030655;23;20043;-52
2023/04/10 01:17:32;;;;;;;30.42;20.67;;;5.40;99.90;;;;;;4960118;28;20027;-51
2023/04/10 01:20:08;;;;;;;31.75;20.33;;;5.30;99.90;;;;;;4962153;28;20031;-47
2023/04/10 01:22:37;;;;;;;33.35;19.33;;;5.40;99.90;;;;;;4971603;28;20027;-50
2023/04/10 01:25:24;;;;;;;29.15;19.33;;;5.30;99.90;;;;;;4971357;28;20089;-50
2023/04/10 01:28:07;;;;;;;28.52;19.10;;;5.40;99.90;;;;;;4971251;28;20027;-51
2023/04/10 01:30:35;;;;;;;32.53;20.88;;;5.40;99.90;;;;;;4970409;28;20039;-48
2023/04/10 01:33:02;;;;;;;33.92;19.83;;;5.40;99.90;;;;;;4971017;28;20031;-49
2023/04/10 01:35:30;;;;;;;27.40;19.27;;;5.40;99.90;;;;;;4970514;28;20022;-49
2023/04/10 01:37:59;;;;;;;26.60;19.08;;;5.40;99.90;;;;;;4970778;28;20528;-48
2023/04/10 01:40:26;;;;;;;29.20;19.63;;;5.40;99.90;;;;;;4970559;28;20081;-48
2023/04/10 01:42:55;;;;;;;33.03;19.65;;;5.40;99.90;;;;;;4969288;28;20030;-47
2023/04/10 01:45:26;;;;;;;29.70;19.67;;;5.40;99.90;;;;;;4970753;28;20109;-49
2023/04/10 01:47:53;;;;;;;30.30;20.63;;;5.40;99.90;;;;;;4971222;28;20073;-48
2023/04/10 01:50:23;;;;;;;31.38;19.52;;;5.40;99.90;;;;;;4968515;28;20247;-47
2023/04/10 01:52:50;;;;;;;30.05;19.48;;;5.40;99.90;;;;;;4970677;28;20026;-47
2023/04/10 01:55:17;;;;;;;30.35;20.40;;;5.40;99.90;;;;;;4969943;28;20021;-47
2023/04/10 01:57:44;;;;;;;26.77;18.05;;;5.40;99.90;;;;;;4971025;28;20023;-48
2023/04/10 02:00:11;;;;;;;30.02;18.90;;;5.50;99.90;;;;;;4970091;28;20011;-47
2023/04/10 02:02:36;;;;;;;30.40;19.70;;;5.50;99.90;;;;;;4970987;28;20401;-49
2023/04/10 02:05:02;;;;;;;30.35;19.70;;;5.50;99.90;;;;;;4969417;28;20019;-47
2023/04/10 02:07:36;;;;;;;30.98;18.67;;;5.50;99.90;;;;;;4970981;28;20046;-48
2023/04/10 02:10:12;;;;;;;30.85;21.10;;;5.50;99.90;;;;;;4970431;28;20030;-47
2023/04/10 02:12:47;;;;;;;30.40;20.83;;;5.50;99.90;;;;;;4970817;28;20504;-51
2023/04/10 02:15:15;;;;;;;28.58;18.17;;;5.50;99.90;;;;;;4970638;28;20564;-47
2023/04/10 02:17:41;;;;;;;28.92;18.70;;;5.50;99.90;;;;;;4970450;28;20019;-48
2023/04/10 02:20:09;;;;;;;29.38;20.45;;;5.50;99.90;;;;;;4971344;28;20030;-48
2023/04/10 02:22:35;;;;;;;30.35;19.75;;;5.50;99.90;;;;;;4969703;28;20035;-47
2023/04/10 02:25:03;;;;;;;32.53;19.38;;;5.40;99.90;;;;;;4975380;28;20034;-47
2023/04/10 02:27:31;;;;;;;30.55;19.90;;;5.40;99.90;;;;;;4970552;28;20062;-48
2023/04/10 02:29:57;;;;;;;27.10;18.23;;;5.40;99.90;;;;;;4968028;28;20097;-50
2023/04/10 02:32:23;;;;;;;27.13;19.08;;;5.40;99.90;;;;;;4963725;28;20070;-51
2023/04/10 02:34:49;;;;;;;24.33;17.65;;;5.40;99.90;;;;;;4969865;28;20114;-47
2023/04/10 02:37:15;;;;;;;27.02;17.67;;;5.30;99.90;;;;;;4969302;28;20115;-49
2023/04/10 02:39:41;;;;;;;25.52;17.63;;;5.30;99.90;;;;;;4969493;28;20034;-50
2023/04/10 02:42:06;;;;;;;25.48;18.77;;;5.30;99.90;;;;;;4970283;28;20027;-49
2023/04/10 02:44:32;;;;;;;29.13;19.20;;;5.20;99.90;;;;;;4969970;28;20037;-47
2023/04/10 02:46:57;;;;;;;32.03;20.10;;;5.20;99.90;;;;;;4970081;28;20374;-48
2023/04/10 02:49:23;;;;;;;32.15;19.05;;;5.20;99.90;;;;;;4968626;28;20039;-49
2023/04/10 02:51:48;;;;;;;31.38;19.90;;;5.20;99.90;;;;;;4970798;28;20027;-51
2023/04/10 02:54:14;;;;;;;27.48;19.70;;;5.20;99.90;;;;;;4970006;28;20018;-47
2023/04/10 02:56:40;;;;;;;31.23;18.42;;;5.20;99.90;;;;;;4969914;28;20098;-49
2023/04/10 02:59:05;;;;;;;29.40;19.40;;;5.20;99.90;;;;;;4969592;28;20023;-49
2023/04/10 03:01:31;;;;;;;27.05;19.20;;;5.20;99.90;;;;;;4968847;28;20031;-50
2023/04/10 03:03:57;;;;;;;28.45;19.83;;;5.20;99.90;;;;;;4970005;28;20038;-48
2023/04/10 03:06:26;;;;;;;28.40;18.70;;;5.20;99.90;;;;;;4971452;28;20062;-48
2023/04/10 03:08:52;;;;;;;30.42;19.40;;;5.10;99.90;;;;;;4973425;28;20031;-49
2023/04/10 03:11:17;;;;;;;30.50;19.58;;;5.20;99.90;;;;;;4973682;28;20038;-52
2023/04/10 03:13:43;;;;;;;33.10;19.75;;;5.10;99.90;;;;;;4974014;28;20070;-48
2023/04/10 03:16:08;;;;;;;29.65;19.52;;;5.10;99.90;;;;;;4973943;28;20027;-48
2023/04/10 03:18:34;;;;;;;29.25;19.45;;;5.10;99.90;;;;;;4973836;28;20481;-51
2023/04/10 03:21:00;;;;;;;28.80;18.98;;;5.10;99.90;;;;;;4973556;28;20030;-51
2023/04/10 03:23:26;;;;;;;27.45;19.60;;;5.10;99.90;;;;;;4973865;28;20085;-48
2023/04/10 03:25:53;;;;;;;29.45;19.27;;;5.10;99.90;;;;;;4973558;28;20027;-48
2023/04/10 03:28:19;;;;;;;30.55;20.42;;;5.00;99.90;;;;;;4972347;28;20042;-47
2023/04/10 03:30:45;;;;;;;31.08;19.92;;;5.00;99.90;;;;;;4972604;28;20378;-48
2023/04/10 03:33:10;;;;;;;27.95;18.13;;;5.00;99.90;;;;;;4973640;28;20023;-48
2023/04/10 03:35:36;;;;;;;32.85;18.70;;;5.00;99.90;;;;;;4972912;28;20401;-51
2023/04/10 03:38:02;;;;;;;28.10;19.90;;;5.00;99.90;;;;;;4973236;28;20105;-48
2023/04/10 03:40:27;;;;;;;29.95;19.70;;;5.00;99.90;;;;;;4972898;28;20617;-48
2023/04/10 03:42:53;;;;;;;33.25;19.10;;;4.90;99.90;;;;;;4973537;28;20497;-48
2023/04/10 03:45:19;;;;;;;27.45;20.02;;;4.90;99.90;;;;;;4973058;28;20035;-52
2023/04/10 03:47:45;;;;;;;29.45;20.27;;;5.00;99.90;;;;;;4972283;28;20393;-48
2023/04/10 03:50:11;;;;;;;30.27;19.27;;;4.90;99.90;;;;;;4972666;28;20031;-52
2023/04/10 03:52:37;;;;;;;31.50;20.77;;;4.90;99.90;;;;;;4973170;28;20035;-48
2023/04/10 03:55:03;;;;;;;32.25;19.38;;;4.90;99.90;;;;;;4971536;28;20026;-50
2023/04/10 03:57:28;;;;;;;26.88;19.17;;;4.90;99.90;;;;;;4973187;28;20022;-50
2023/04/10 03:59:54;;;;;;;31.10;19.45;;;4.90;99.90;;;;;;4972433;28;20488;-50
2023/04/10 04:02:19;;;;;;;29.75;19.33;;;4.90;99.90;;;;;;4972773;28;20492;-50
2023/04/10 04:04:46;;;;;;;26.48;19.40;;;4.90;99.90;;;;;;4973233;28;20066;-51
2023/04/10 04:07:12;;;;;;;28.95;19.15;;;4.90;99.90;;;;;;4972534;28;20022;-48
2023/04/10 04:09:39;;;;;;;31.15;19.20;;;4.90;99.90;;;;;;4972725;28;20027;-49
2023/04/10 04:12:06;;;;;;;29.92;19.20;;;4.90;99.90;;;;;;4972912;28;20066;-50
2023/04/10 04:14:31;;;;;;;28.00;19.17;;;4.90;99.90;;;;;;4972210;28;20050;-48
2023/04/10 04:16:57;;;;;;;30.75;20.45;;;4.90;99.90;;;;;;4971897;28;20062;-49
2023/04/10 04:19:23;;;;;;;29.10;18.83;;;4.90;99.90;;;;;;4972511;28;20022;-49
2023/04/10 04:21:49;;;;;;;28.52;19.30;;;4.90;99.90;;;;;;4972531;28;20031;-51
2023/04/10 04:24:14;;;;;;;28.95;18.92;;;4.80;99.90;;;;;;4971499;28;20033;-50
2023/04/10 04:26:40;;;;;;;32.88;19.40;;;4.80;99.90;;;;;;4972513;28;20027;-48
2023/04/10 04:29:05;;;;;;;31.90;19.55;;;4.80;99.90;;;;;;4971966;28;20488;-48
2023/04/10 04:31:31;;;;;;;28.60;19.85;;;4.80;99.90;;;;;;4971631;28;20043;-51
2023/04/10 04:34:00;;;;;;;32.90;19.10;;;4.80;99.90;;;;;;4972357;28;20493;-50
2023/04/10 04:36:27;;;;;;;30.48;18.70;;;4.90;99.90;;;;;;4969418;28;20022;-50
2023/04/10 04:38:55;;;;;;;29.40;19.35;;;4.90;99.90;;;;;;4972071;28;20543;-49
2023/04/10 04:41:21;;;;;;;28.00;17.92;;;4.80;99.90;;;;;;4971381;28;20023;-48
2023/04/10 04:43:46;;;;;;;26.73;19.20;;;4.80;99.90;;;;;;4971604;28;20034;-51
2023/04/10 04:46:12;;;;;;;28.90;19.33;;;4.80;99.90;;;;;;4970578;28;20057;-49
2023/04/10 04:48:38;;;;;;;30.45;19.58;;;4.80;99.90;;;;;;4971983;28;20026;-50
2023/04/10 04:51:06;;;;;;;27.27;18.85;;;4.80;99.90;;;;;;4971672;28;20027;-49
2023/04/10 04:53:31;;;;;;;29.95;19.70;;;4.80;99.90;;;;;;4971768;28;20117;-48
2023/04/10 04:55:57;;;;;;;28.70;18.25;;;4.80;99.90;;;;;;4971573;28;20093;-52
2023/04/10 04:58:23;;;;;;;29.20;18.92;;;4.80;99.90;;;;;;4971721;28;20019;-51
2023/04/10 05:00:50;;;;;;;29.98;19.70;;;4.80;99.90;;;;;;4970382;28;20034;-50
2023/04/10 05:03:16;;;;;;;30.40;19.70;;;4.80;99.90;;;;;;4971581;28;20489;-49
2023/04/10 05:05:42;;;;;;;29.95;18.23;;;4.80;99.90;;;;;;4970786;28;20113;-48
2023/04/10 05:08:08;;;;;;;27.83;19.27;;;4.90;99.90;;;;;;4971389;28;20110;-50
2023/04/10 05:10:33;;;;;;;29.98;19.48;;;4.90;99.90;;;;;;4971013;28;20085;-48
2023/04/10 05:12:59;;;;;;;28.38;19.63;;;4.90;99.90;;;;;;4971119;28;20578;-49
2023/04/10 05:15:24;;;;;;;29.50;19.42;;;4.90;99.90;;;;;;4970815;28;20601;-51
2023/04/10 05:17:51;;;;;;;28.42;17.80;;;5.00;99.90;;;;;;4971277;28;20023;-50
2023/04/10 05:20:17;;;;;;;29.17;19.45;;;5.00;99.90;;;;;;4971239;28;20505;-49
2023/04/10 05:22:43;;;;;;;29.50;20.35;;;5.00;99.90;;;;;;4971326;28;20026;-48
2023/04/10 05:25:08;;;;;;;29.67;19.98;;;5.00;99.90;;;;;;4970013;28;20027;-51
2023/04/10 05:27:34;;;;;;;29.27;20.00;;;5.10;99.90;;;;;;4970954;28;20050;-52
2023/04/10 05:30:00;;;;;;;27.83;19.48;;;5.20;99.90;;;;;;4970235;28;20481;-52
2023/04/10 05:32:25;;;;;;;29.00;19.85;;;5.20;99.90;;;;;;4970294;28;20035;-49
2023/04/10 05:34:51;;;;;;;29.90;19.42;;;5.30;99.90;;;;;;4970593;28;20094;-49
2023/04/10 05:37:16;;;;;;;28.35;19.63;;;5.30;99.90;;;;;;4969413;28;20030;-48
2023/04/10 05:39:42;;;;;;;29.05;19.70;;;5.40;99.90;;;;;;4970298;28;20023;-51
2023/04/10 05:42:07;;;;;;;29.10;20.02;;;5.50;99.90;;;;;;4970989;28;20039;-51
2023/04/10 05:44:33;;;;;;;29.13;19.92;;;5.60;99.90;;;;;;4970641;28;20473;-48
2023/04/10 05:46:59;;;;;;;28.13;20.23;;;5.60;99.90;;;;;;4970519;28;20084;-50
2023/04/10 05:49:24;;;;;;;31.20;20.80;;;5.70;99.90;;;;;;4970171;28;20037;-50
2023/04/10 05:51:51;;;;;;;29.13;19.45;;;5.80;99.90;;;;;;4970500;28;20500;-48
2023/04/10 05:54:17;;;;;;;29.63;20.05;;;5.80;99.90;;;;;;4969265;28;20022;-53
2023/04/10 05:56:42;;;;;;;26.90;18.92;;;5.90;99.90;;;;;;4970271;28;20019;-51
2023/04/10 05:59:08;;;;;;;30.45;20.38;;;6.00;99.90;;;;;;4970338;28;20354;-49
2023/04/10 06:01:33;;;;;;;29.02;19.52;;;6.00;99.90;;;;;;4970148;28;20034;-49
2023/04/10 06:03:59;;;;;;;25.35;18.95;;;6.10;99.90;;;;;;4970592;28;20046;-49
2023/04/10 06:06:25;;;;;;;27.42;18.75;;;6.10;99.90;;;;;;4970020;28;20033;-51
2023/04/10 06:08:51;;;;;;;31.80;20.33;;;6.10;99.90;;;;;;4970207;28;20026;-52
2023/04/10 06:11:17;;;;;;;25.40;18.08;;;6.20;99.90;;;;;;4970183;28;20066;-50
2023/04/10 06:13:43;;;;;;;26.02;18.92;;;6.20;99.90;;;;;;4969851;28;20050;-49
2023/04/10 06:16:08;;;;;;;28.42;19.77;;;6.30;99.90;;;;;;4968677;28;20035;-49
2023/04/10 06:18:34;;;;;;;29.80;18.65;;;6.40;99.90;;;;;;4970453;28;20019;-49
2023/04/10 06:21:00;;;;;;;27.73;19.98;;;6.40;99.90;;;;;;4969587;28;20122;-50
2023/04/10 06:23:27;;;;;;;30.02;19.50;;;6.40;99.90;;;;;;4970040;28;20027;-49
2023/04/10 06:25:53;;;;;;;28.25;18.67;;;6.50;99.90;;;;;;4969866;28;20030;-48
2023/04/10 06:28:19;;;;;;;27.70;19.35;;;6.50;99.90;;;;;;4970115;28;20065;-48
2023/04/10 06:30:45;;;;;;;25.17;18.60;;;6.60;99.90;;;;;;4969228;28;20062;-50
2023/04/10 06:33:10;;;;;;;25.30;18.00;;;6.60;99.90;;;;;;4969983;28;20038;-49
2023/04/10 06:35:36;;;;;;;25.15;17.35;;;6.70;99.90;;;;;;4969739;28;20019;-49
2023/04/10 06:38:02;;;;;;;28.55;18.00;;;6.80;99.90;;;;;;4969459;28;20385;-49
2023/04/10 06:40:29;;;;;;;27.02;18.02;;;6.80;99.90;;;;;;4970272;28;20030;-49
2023/04/10 06:42:55;;;;;;;23.90;16.85;;;6.90;99.90;;;;;;4967292;28;20042;-50
2023/04/10 06:45:21;;;;;;;27.08;18.30;;;6.90;99.90;;;;;;4969703;28;20049;-50
2023/04/10 06:47:46;;;;;;;28.45;18.98;;;7.00;99.90;;;;;;4968370;28;20497;-50
2023/04/10 06:50:12;;;;;;;27.45;19.75;;;7.10;99.90;;;;;;4968855;28;20031;-49
2023/04/10 06:52:38;;;;;;;25.75;17.98;;;7.20;99.90;;;;;;4969111;28;20031;-49
2023/04/10 06:55:04;;;;;;;25.45;17.98;;;7.30;99.90;;;;;;4969425;28;20026;-50
2023/04/10 06:57:30;;;;;;;26.80;18.40;;;7.30;99.90;;;;;;4969670;28;20069;-49
2023/04/10 06:59:55;;;;;;;25.42;17.50;;;7.40;99.90;;;;;;4968540;28;20019;-48
2023/04/10 07:02:21;;;;;;;25.23;17.52;;;7.50;99.90;;;;;;4969076;28;20027;-49
2023/04/10 07:04:46;;;;;;;25.45;17.55;;;7.60;99.90;;;;;;4969691;28;20030;-50
2023/04/10 07:07:12;;;;;;;27.20;18.15;;;7.70;99.90;;;;;;4969765;28;20038;-48
2023/04/10 07:09:38;;;;;;;24.60;16.80;;;7.80;99.90;;;;;;4969496;28;20110;-49
2023/04/10 07:12:04;;;;;;;27.65;17.40;;;7.90;99.90;;;;;;4969627;28;20149;-48
2023/04/10 07:14:33;;;;;;;23.98;18.02;;;8.00;99.90;;;;;;4994712;22;20106;-53
2023/04/10 07:16:59;;;;;;;23.27;17.23;;;8.20;99.90;;;;;;4987298;28;20477;-57
2023/04/10 07:19:25;;;;;;;24.55;17.50;;;8.40;99.90;;;;;;4996100;28;20018;-55
2023/04/10 07:21:50;;;;;;;23.73;16.35;;;8.50;99.90;;;;;;4996820;28;20070;-57
2023/04/10 07:24:16;;;;;;;23.95;16.85;;;8.70;99.90;;;;;;4997364;28;20431;-55
2023/04/10 07:26:46;;;;;;;25.13;16.33;;;8.80;99.90;;;;;;4989627;28;20080;-55
2023/04/10 07:29:12;;;;;;;22.65;16.92;;;9.00;99.90;;;;;;4996511;28;20102;-56
2023/04/10 07:31:39;;;;;;;22.45;16.30;;;9.20;99.90;;;;;;4981818;28;20034;-57
2023/04/10 07:34:05;;;;;;;24.20;16.40;;;9.40;99.90;;;;;;4998048;28;20030;-56
2023/04/10 07:36:31;;;;;;;21.80;14.75;;;9.50;99.90;;;;;;4985340;28;20026;-57
2023/04/10 07:38:57;;;;;;;22.52;15.45;;;9.70;99.90;;;;;;5001310;28;20050;-58
2023/04/10 07:41:23;;;;;;;19.35;15.00;;;9.90;99.90;;;;;;4992194;28;20410;-55
2023/04/10 07:43:49;;;;;;;19.85;14.80;;;10.10;99.90;;;;;;4997829;28;20025;-57
2023/04/10 07:46:15;;;;;;;20.02;15.60;;;10.30;99.90;;;;;;4999608;28;20036;-57
2023/04/10 07:48:41;;;;;;;21.83;15.50;;;10.60;99.90;;;;;;4996638;28;20022;-58
2023/04/10 07:51:08;;;;;;;18.48;14.80;;;10.80;99.90;;;;;;4989551;28;20084;-59
2023/04/10 07:53:37;;;;;;;20.45;15.20;;;11.00;99.90;;;;;;4999181;28;20033;-56
2023/04/10 07:56:03;;;;;;;18.52;14.20;;;11.30;99.90;;;;;;5006683;28;20535;-55
2023/04/10 07:58:28;;;;;;;19.05;14.45;;;11.40;99.90;;;;;;4999674;28;20037;-57
2023/04/10 08:00:54;;;;;;;19.10;14.60;;;11.60;99.90;;;;;;5001155;28;20457;-56
2023/04/10 08:03:20;;;;;;;18.90;13.40;;;11.80;99.90;;;;;;5003910;28;20026;-57
2023/04/10 08:05:45;;;;;;;17.60;14.52;;;12.00;99.90;;;;;;5000300;28;20034;-57
2023/04/10 08:08:11;;;;;;;21.92;14.00;;;12.30;99.90;;;;;;5005732;28;20042;-56
2023/04/10 08:10:37;;;;;;;17.00;13.77;;;12.40;99.90;;;;;;4995718;28;20019;-57
2023/04/10 08:13:03;;;;;;;19.08;14.13;;;12.50;99.90;;;;;;5005608;28;20487;-57
2023/04/10 08:15:29;;;;;;;17.52;13.52;;;12.70;99.90;;;;;;4998693;28;20061;-58
2023/04/10 08:17:55;;;;;;;19.75;14.48;;;12.90;99.90;;;;;;4986836;28;20088;-58
2023/04/10 08:20:20;;;;;;;15.80;13.32;;;13.00;99.90;;;;;;4994777;28;20031;-58
2023/04/10 08:22:46;;;;;;;17.33;13.50;;;13.10;99.90;;;;;;4989518;28;20078;-58
2023/04/10 08:25:11;;;;;;;15.63;12.80;;;13.30;99.90;;;;;;4997891;28;20030;-56
2023/04/10 08:27:37;;;;;;;15.95;12.23;;;13.50;99.90;;;;;;5006968;28;20034;-58
2023/04/10 08:30:03;;;;;;;19.90;14.18;;;13.70;99.90;;;;;;4996558;28;20036;-55
2023/04/10 08:32:29;;;;;;;16.58;14.13;;;13.80;99.90;;;;;;5002418;28;20146;-56
2023/04/10 08:34:55;;;;;;;16.50;12.02;;;14.00;99.90;;;;;;4998658;28;20044;-56
2023/04/10 08:37:21;;;;;;;15.95;12.13;;;14.10;99.90;;;;;;4995013;28;20493;-56
2023/04/10 08:39:47;;;;;;;16.77;13.10;;;14.20;99.90;;;;;;4988897;28;20050;-56
2023/04/10 08:42:12;;;;;;;16.60;13.27;;;14.40;99.90;;;;;;5002053;28;20049;-59
2023/04/10 08:44:38;;;;;;;19.33;13.15;;;14.40;99.90;;;;;;5000523;28;20026;-59
2023/04/10 08:47:05;;;;;;;14.05;12.18;;;14.40;99.90;;;;;;4995724;28;20065;-57
2023/04/10 08:49:37;;;;;;;15.65;13.00;;;14.50;99.90;;;;;;4992913;28;20026;-56
2023/04/10 08:52:12;;;;;;;14.10;12.07;;;14.50;99.90;;;;;;4999319;28;20041;-59
2023/04/10 08:54:39;;;;;;;13.98;11.98;;;14.60;99.90;;;;;;4999469;28;20039;-59
2023/04/10 08:57:07;;;;;;;16.35;12.70;;;14.70;99.90;;;;;;4998899;28;20015;-58
2023/04/10 08:59:33;;;;;;;16.25;12.70;;;14.80;99.90;;;;;;4997172;28;20024;-59
2023/04/10 09:01:59;;;;;;;14.85;12.00;;;14.90;99.90;;;;;;4998287;28;20117;-58
2023/04/10 09:04:25;;;;;;;15.68;12.55;;;15.20;99.90;;;;;;4998980;28;20516;-56
2023/04/10 09:06:52;;;;;;;16.20;12.65;;;15.40;99.90;;;;;;4999183;28;20273;-59
2023/04/10 09:09:18;;;;;;;12.95;11.38;;;15.50;99.90;;;;;;5002052;28;20048;-56
2023/04/10 09:11:54;;;;;;;13.55;12.15;;;15.70;99.90;;;;;;4997835;28;20034;-59
2023/04/10 09:14:20;;;;;;;;;;;15.80;99.80;;;;;;5002290;28;20021;-59
2023/04/10 09:16:46;;;;;;;14.88;11.25;;;15.90;99.90;;;;;;4998265;28;19914;-56
2023/04/10 09:19:12;;;;;;;14.55;11.25;;;16.00;99.90;;;;;;4988237;28;20075;-57
2023/04/10 09:21:37;;;;;;;14.30;12.75;;;16.10;99.70;;;;;;4999975;28;20037;-57
2023/04/10 09:24:04;;;;;;;14.60;11.18;;;16.10;98.80;;;;;;4998715;28;20034;-54
2023/04/10 09:26:32;;;;;;;13.63;11.60;;;16.10;99.90;;;;;;5002371;28;20025;-54
2023/04/10 09:29:03;;;;;;;12.30;10.30;;;16.30;99.90;;;;;;4999649;28;20336;-57
2023/04/10 09:31:32;;;;;;;13.73;10.80;;;16.40;98.40;;;;;;4991728;28;20056;-57
2023/04/10 09:34:27;;;;;;;13.15;11.30;;;16.50;96.50;;;;;;4985201;28;20026;-58
2023/04/10 09:36:57;;;;;;;13.57;10.93;;;16.50;95.40;;;;;;4978851;28;20031;-55
2023/04/10 09:39:34;;;;;;;12.65;10.52;;;16.50;96.70;;;;;;4998588;28;20057;-58
2023/04/10 09:42:00;;;;;;;11.52;10.20;;;16.50;97.70;;;;;;4999380;28;20018;-58
2023/04/10 09:44:38;;;;;;;12.02;10.18;;;16.60;97.10;;;;;;4995518;28;20488;-56
2023/04/10 09:47:12;;;;;;;11.35;10.15;;;16.60;95.00;;;;;;5001002;28;20121;-57
2023/04/10 09:49:49;;;;;;;11.57;10.00;;;16.70;97.10;;;;;;4994586;28;20534;-58
2023/04/10 09:52:22;;;;;;;12.40;9.82;;;16.70;94.90;;;;;;4991573;28;20018;-55
2023/04/10 09:54:47;;;;;;;10.98;9.52;;;16.80;94.80;;;;;;4997802;28;20052;-57
2023/04/10 09:57:20;;;;;;;14.02;9.10;;;16.80;95.20;;;;;;5001433;28;20026;-56
2023/04/10 09:59:50;;;;;;;9.60;8.60;;;16.80;93.20;;;;;;4999529;28;20118;-58
2023/04/10 10:02:17;;;;;;;10.57;9.27;;;16.80;94.20;;;;;;4991293;28;20501;-57
2023/04/10 10:04:46;;;;;;;14.45;8.75;;;16.90;94.10;;;;;;5001223;28;20026;-58
2023/04/10 10:07:13;;;;;;;11.70;9.40;;;17.10;93.90;;;;;;4999214;28;20034;-58
2023/04/10 10:09:40;;;;;;;11.27;8.98;;;17.10;92.80;;;;;;5000913;28;20171;-58
2023/04/10 10:12:08;;;;;;;11.68;9.82;;;17.20;93.70;;;;;;4994606;28;20427;-59
2023/04/10 10:14:36;;;;;;;11.23;9.82;;;17.30;93.80;;;;;;4995534;28;20026;-58
2023/04/10 10:17:09;;;;;;;10.27;8.90;;;17.30;92.40;;;;;;4997842;28;20045;-57
2023/04/10 10:19:49;;;;;;;11.50;9.45;;;17.30;91.80;;;;;;4987426;28;20076;-59
2023/04/10 10:22:15;;;;;;;11.73;9.38;;;17.30;92.50;;;;;;4991296;28;20503;-59
2023/04/10 10:24:46;;;;;;;11.82;10.10;;;17.30;92.70;;;;;;4995857;28;20062;-58
2023/04/10 10:27:13;;;;;;;11.45;10.18;;;17.30;92.90;;;;;;4990232;28;20105;-57
2023/04/10 10:29:40;;;;;;;11.73;9.95;;;17.30;91.80;;;;;;4987345;28;20030;-59
2023/04/10 10:32:07;;;;;;;10.43;9.15;;;17.30;92.40;;;;;;4992557;28;20113;-58
2023/04/10 10:34:35;;;;;;;12.02;9.05;;;17.30;92.80;;;;;;5000110;28;20048;-57
2023/04/10 10:37:03;;;;;;;9.38;8.18;;;17.30;91.00;;;;;;4990982;28;20034;-58
2023/04/10 10:39:56;;;;;;;8.98;8.07;;;17.40;91.60;;;;;;4991604;28;20018;-59
2023/04/10 10:42:41;;;;;;;10.02;8.18;;;17.60;91.60;;;;;;4979893;28;20428;-57
2023/04/10 10:45:24;;;;;;;9.67;8.67;;;17.70;90.40;;;;;;4992865;28;20094;-56
2023/04/10 10:47:53;;;;;;;9.52;8.48;;;17.80;92.70;;;;;;4997199;28;20049;-55
2023/04/10 10:50:19;;;;;;;8.30;7.40;;;17.90;90.50;;;;;;5000117;28;20014;-57
2023/04/10 10:52:50;;;;;;;8.57;7.40;;;17.90;90.10;;;;;;4984712;28;20097;-54
2023/04/10 10:55:21;;;;;;;8.90;7.97;;;17.90;87.90;;;;;;4998608;28;20022;-59
2023/04/10 10:57:51;;;;;;;8.32;7.53;;;17.80;88.30;;;;;;4995197;28;20114;-54
2023/04/10 11:00:17;;;;;;;9.95;8.07;;;17.80;90.00;;;;;;4996067;28;20492;-55
2023/04/10 11:02:43;;;;;;;8.63;7.55;;;17.70;88.90;;;;;;4994717;28;20033;-56
2023/04/10 11:05:09;;;;;;;8.57;7.22;;;17.80;87.30;;;;;;4990721;28;20559;-57
2023/04/10 11:08:01;;;;;;;8.30;7.40;;;17.80;87.80;;;;;;5001959;28;20022;-57
2023/04/10 11:11:06;;;;;;;6.78;6.13;;;17.80;87.10;;;;;;4993028;28;20107;-53
2023/04/10 11:13:34;;;;;;;8.35;6.30;;;17.80;82.70;;;;;;4989990;28;20399;-56
2023/04/10 11:16:01;;;;;;;7.57;6.78;;;17.80;82.80;;;;;;4996876;28;20061;-55
2023/04/10 11:18:45;;;;;;;7.75;6.95;;;17.70;82.40;;;;;;4998797;28;20531;-56
2023/04/10 11:21:18;;;;;;;6.90;6.20;;;17.70;82.50;;;;;;4996108;28;20048;-58
2023/04/10 11:23:53;;;;;;;6.57;5.97;;;17.80;83.20;;;;;;4995135;28;20088;-55
2023/04/10 11:26:34;;;;;;;6.38;5.63;;;17.80;80.10;;;;;;5003323;28;20022;-58
2023/04/10 11:29:16;;;;;;;7.57;6.88;;;17.90;82.30;;;;;;5004897;28;20052;-58
2023/04/10 11:31:45;;;;;;;7.22;6.47;;;17.90;83.50;;;;;;4993623;28;20046;-57
2023/04/10 11:34:11;;;;;;;7.03;6.32;;;18.00;82.60;;;;;;5001592;28;20533;-56
2023/04/10 11:36:38;;;;;;;7.20;6.35;;;18.10;81.30;;;;;;4998888;28;20026;-56
2023/04/10 11:39:07;;;;;;;8.63;6.90;;;18.10;80.80;;;;;;5001605;28;20026;-54
2023/04/10 11:41:38;;;;;;;8.32;6.57;;;18.20;80.30;;;;;;4999832;28;20096;-57
2023/04/10 11:44:06;;;;;;;7.30;6.50;;;18.20;82.60;;;;;;5007519;28;20387;-57
2023/04/10 11:46:36;;;;;;;6.65;5.88;;;18.30;79.80;;;;;;4999778;28;20053;-54
2023/04/10 11:49:04;;;;;;;6.35;5.80;;;18.30;79.30;;;;;;4992972;28;20511;-56
2023/04/10 11:51:30;;;;;;;6.35;5.63;;;18.30;77.60;;;;;;5002957;28;20095;-54
2023/04/10 11:54:16;;;;;;;7.53;6.35;;;18.20;77.00;;;;;;5001391;28;20033;-57
2023/04/10 11:56:59;;;;;;;7.15;5.90;;;18.30;78.70;;;;;;5002416;28;20027;-54
2023/04/10 11:59:26;;;;;;;6.75;5.65;;;18.30;79.10;;;;;;5003154;28;20114;-55
2023/04/10 12:01:54;;;;;;;5.65;5.15;;;18.30;78.10;;;;;;4999234;28;20030;-54
2023/04/10 12:04:21;;;;;;;5.68;5.07;;;18.30;77.90;;;;;;5003093;28;20080;-55
2023/04/10 12:06:51;;;;;;;6.75;6.05;;;18.40;79.80;;;;;;4999804;28;20459;-55
2023/04/10 12:09:19;;;;;;;6.75;6.05;;;18.50;79.10;;;;;;5002958;28;20435;-57
2023/04/10 12:11:50;;;;;;;6.10;5.50;;;18.60;78.70;;;;;;5002232;28;20029;-57
2023/04/10 12:14:16;;;;;;;5.55;5.05;;;18.70;76.60;;;;;;5002563;28;20018;-55
2023/04/10 12:16:43;;;;;;;7.57;6.47;;;18.80;75.20;;;;;;5002355;28;20496;-58
2023/04/10 12:19:09;;;;;;;5.55;5.05;;;18.80;74.50;;;;;;4998951;28;20018;-53
2023/04/10 12:21:36;;;;;;;5.78;5.07;;;18.70;75.70;;;;;;5004744;28;20105;-56
2023/04/10 12:24:01;;;;;;;5.93;5.32;;;18.50;75.50;;;;;;4999609;28;20035;-55
2023/04/10 12:26:27;;;;;;;5.60;5.07;;;18.50;75.00;;;;;;5005969;28;20384;-57
2023/04/10 12:28:56;;;;;;;5.78;5.18;;;18.50;76.50;;;;;;5000779;28;20476;-55
2023/04/10 12:31:33;;;;;;;5.50;5.00;;;18.60;75.50;;;;;;4998396;28;20424;-56
2023/04/10 12:34:00;;;;;;;6.57;5.18;;;18.70;76.90;;;;;;5005391;28;20026;-57
2023/04/10 12:36:29;;;;;;;8.02;5.70;;;18.70;75.20;;;;;;4994514;28;20105;-57
2023/04/10 12:38:56;;;;;;;7.95;5.13;;;18.70;75.50;;;;;;4988645;28;20038;-54
2023/04/10 12:41:24;;;;;;;5.68;5.07;;;18.70;73.10;;;;;;4998472;28;20026;-56